Terminal Aerodrome Forecast
Issued by NWS

Home | Current Version | Previous Version | Text Only | Print | Product List | Glossary On
Versions: 1 2 3 4 5 6 7 8 9 10 11 12 13 14 15 16 17 18 19 20 21 22 23 24 25
000
FTUS41 KOKX 030556
TAFSWF
TAF
KSWF 030556Z 0306/0412 00000KT 2SM BR BKN010
      TEMPO 0306/0310 6SM BR OVC005
     FM031000 00000KT 2SM BR FEW005 BKN250
     FM031200 07004KT P6SM BKN250
     FM031700 10006KT P6SM FEW050 SCT250
     FM032100 13006KT P6SM FEW050
     FM040300 VRB02KT P6SM FEW005 SCT250
      AMD NOT SKED=

USA.gov is the U.S. government's official web portal to all federal, state and local government web resources and services.